Paraburdoo, Western Australia

8:38 AM AWST on July 28, 2016 (GMT +0800)
Paraburdoo | | Change Station

Elev 1404 ft 23.17 °S, 117.75 °E | Updated 38 minutes ago

Clear
Clear
66 °F
Feels Like 66 °F
N
12
Wind Variable Wind from ENE

Today
High -- | Low -- °F
--% Chance of Precip.
Yesterday
High -- | Low -- °F
Precip. -- in
Pressure 30.18 in
Visibility 6.2 miles
Clouds
Dew Point 28 °F
Humidity 24%
Rainfall 0.00 in
Snow Depth Not available.
6:45 AM 5:45 PM
Last Quarter, 38% visible
METAR YPBO 280000Z AUTO 07010KT 9999 // NCD 19/M02 Q1022
Pressure 30.18 in
Visibility 6.2 miles
Clouds
Dew Point 28 °F
Humidity 24%
Rainfall 0.00 in
Snow Depth Not available.
6:45 AM 5:45 PM
Last Quarter, 38% visible
METAR YPBO 280000Z AUTO 07010KT 9999 // NCD 19/M02 Q1022

10-Day Weather Forecast

No radar image for this location.
×

Almanac

Astronomy

Jul. 28, 2016 Rise Set
Actual Time
Civil Twilight
Nautical Twilight
Astronomical Twilight
Moon
Length of Visible Light
Length of Day
Tomorrow will be .
, % of the Moon is Illuminated

Today's Extremes

Country Highs Country Lows

Community

WunderPhotos

Upload Photos

1,927,978 photos uploaded!

WunderBlog® & News

Nearby

Air Quality

  Air Quality AQ Index Pollutant
Not available.

Snow Depth

Station Depth Elevation

Earthquake Activity

City Distance Mag. Time & Date
Minimum magnitude displayed is 2.5.

Coastal Water Temperatures

Place Temperature

Stations

Nearby Weather Stations

Station Location Temp. Windchill Dew Point Humidity Wind Precip. Elev Updated Type